createdAt,value
2023-01-10T00:01:41.940Z,39.50
2023-01-10T00:04:10.192Z,37.70
2023-01-10T00:06:37.960Z,39.30
2023-01-10T00:09:05.738Z,39.20
2023-01-10T00:11:51.935Z,40.30
2023-01-10T00:14:19.565Z,38.80
2023-01-10T00:16:47.258Z,38.60
2023-01-10T00:19:14.948Z,39.30
2023-01-10T00:21:42.660Z,40.70
2023-01-10T00:24:20.510Z,41.60
2023-01-10T00:26:54.191Z,39.00
2023-01-10T00:29:26.183Z,40.00
2023-01-10T00:31:53.887Z,39.80
2023-01-10T00:34:21.517Z,40.70
2023-01-10T00:36:49.384Z,39.30
2023-01-10T00:39:20.003Z,39.30
2023-01-10T00:42:20.411Z,40.80
2023-01-10T00:44:48.970Z,38.90
2023-01-10T00:47:18.681Z,40.40
2023-01-10T00:49:46.796Z,41.40
2023-01-10T00:52:14.603Z,41.30
2023-01-10T00:54:42.342Z,40.90
2023-01-10T00:57:10.179Z,42.70
2023-01-10T00:59:37.894Z,42.20
2023-01-10T01:02:05.642Z,43.40
2023-01-10T01:04:34.485Z,43.60
2023-01-10T01:07:02.859Z,42.10
2023-01-10T01:09:30.740Z,44.00
2023-01-10T01:11:58.477Z,44.40
2023-01-10T01:14:26.300Z,44.30
2023-01-10T01:16:53.977Z,46.30
2023-01-10T01:19:21.652Z,48.10
2023-01-10T01:21:49.344Z,49.70
2023-01-10T01:24:17.032Z,49.30
2023-01-10T01:26:45.762Z,50.60
2023-01-10T01:29:13.423Z,51.40
2023-01-10T01:31:41.108Z,51.00
2023-01-10T01:34:08.864Z,51.40
2023-01-10T01:36:36.629Z,49.70
2023-01-10T01:39:06.146Z,50.70
2023-01-10T01:41:52.631Z,52.00
2023-01-10T01:44:20.476Z,52.40
2023-01-10T01:47:20.050Z,51.10
2023-01-10T01:49:48.152Z,50.30
2023-01-10T01:52:21.827Z,49.60
2023-01-10T01:54:49.691Z,48.60
2023-01-10T01:57:20.330Z,48.70
2023-01-10T01:59:49.967Z,48.50
2023-01-10T02:02:21.220Z,46.90
2023-01-10T02:04:53.148Z,46.60
2023-01-10T02:07:21.548Z,45.10
2023-01-10T02:09:56.867Z,45.80
2023-01-10T02:12:25.145Z,44.90
2023-01-10T02:14:54.034Z,44.10
2023-01-10T02:17:21.716Z,43.90
2023-01-10T02:20:03.863Z,42.80
2023-01-10T02:22:42.248Z,42.80
2023-01-10T02:25:35.309Z,42.50
2023-01-10T02:28:33.999Z,41.80
2023-01-10T02:31:23.669Z,42.60
2023-01-10T02:34:18.945Z,41.60
2023-01-10T02:37:07.163Z,41.00
2023-01-10T02:39:42.971Z,43.10
2023-01-10T02:42:30.390Z,39.30
2023-01-10T02:45:09.821Z,39.30
2023-01-10T02:47:39.001Z,38.70
2023-01-10T02:50:51.952Z,40.30
2023-01-10T02:53:33.524Z,37.00
2023-01-10T02:56:24.989Z,35.70
2023-01-10T02:59:11.856Z,36.00
2023-01-10T03:01:56.467Z,36.80
2023-01-10T03:04:48.082Z,36.20
2023-01-10T03:07:38.563Z,37.10
2023-01-10T03:10:08.963Z,37.90
2023-01-10T03:12:50.435Z,36.50
2023-01-10T03:15:19.820Z,35.60
2023-01-10T03:17:51.767Z,36.60
2023-01-10T03:20:20.720Z,38.10
2023-01-10T03:22:48.487Z,36.20
2023-01-10T03:25:17.936Z,35.90
2023-01-10T03:27:52.081Z,38.30
2023-01-10T03:30:45.655Z,38.10
2023-01-10T03:33:16.783Z,39.00
2023-01-10T03:35:50.366Z,39.50
2023-01-10T03:38:36.032Z,39.30
2023-01-10T03:41:07.869Z,38.80
2023-01-10T03:44:34.737Z,37.90
2023-01-10T03:47:24.513Z,39.10
2023-01-10T03:49:57.854Z,39.60
2023-01-10T03:52:25.920Z,39.30
2023-01-10T03:54:54.011Z,39.50
2023-01-10T03:57:23.124Z,39.90
2023-01-10T03:59:54.756Z,41.10
2023-01-10T04:02:22.447Z,42.10
2023-01-10T04:04:50.548Z,43.40
2023-01-10T04:07:18.264Z,45.30
2023-01-10T04:09:45.969Z,47.90
2023-01-10T04:12:13.610Z,47.10
2023-01-10T04:14:41.529Z,50.80
2023-01-10T04:17:09.647Z,50.60
2023-01-10T04:19:37.369Z,51.10
2023-01-10T04:22:05.977Z,52.30
2023-01-10T04:24:33.747Z,53.30
2023-01-10T04:27:01.534Z,53.00
2023-01-10T04:29:29.344Z,53.30
2023-01-10T04:31:57.087Z,50.80
2023-01-10T04:34:24.849Z,51.20
2023-01-10T04:36:52.589Z,51.20
2023-01-10T04:39:20.231Z,50.40
2023-01-10T04:41:47.891Z,51.90
2023-01-10T04:44:15.538Z,50.30
2023-01-10T04:46:43.211Z,50.10
2023-01-10T04:49:10.913Z,49.70
2023-01-10T04:51:38.742Z,50.10
2023-01-10T04:54:06.626Z,50.50
2023-01-10T04:56:35.055Z,48.10
2023-01-10T04:59:02.755Z,46.50
2023-01-10T05:01:30.537Z,48.00
2023-01-10T05:03:58.288Z,48.10
2023-01-10T05:06:26.005Z,48.60
2023-01-10T05:08:53.688Z,47.80
2023-01-10T05:11:21.407Z,50.40
2023-01-10T05:13:49.420Z,49.90
2023-01-10T05:16:17.267Z,49.30
2023-01-10T05:18:45.163Z,50.50
2023-01-10T05:21:13.675Z,50.80
2023-01-10T05:23:41.347Z,50.20
2023-01-10T05:26:14.310Z,50.90
2023-01-10T05:28:42.595Z,50.50
2023-01-10T05:31:13.273Z,48.10
2023-01-10T05:33:44.948Z,50.40
2023-01-10T05:36:13.064Z,48.40
2023-01-10T05:38:40.874Z,49.10
2023-01-10T05:41:08.741Z,49.60
2023-01-10T05:43:36.539Z,50.50
2023-01-10T05:46:04.354Z,47.90
2023-01-10T05:48:32.074Z,46.50
2023-01-10T05:50:59.824Z,47.70
2023-01-10T05:53:27.846Z,47.10
2023-01-10T05:55:57.251Z,44.50
2023-01-10T05:58:25.691Z,43.80
2023-01-10T06:00:54.526Z,44.90
2023-01-10T06:03:22.700Z,43.80
2023-01-10T06:05:50.384Z,44.70
2023-01-10T06:08:18.150Z,44.90
2023-01-10T06:10:45.742Z,46.40
2023-01-10T06:13:13.426Z,44.70
2023-01-10T06:15:41.305Z,44.00
2023-01-10T06:18:11.848Z,46.60
2023-01-10T06:20:43.577Z,45.40
2023-01-10T06:23:11.275Z,44.80
2023-01-10T06:25:40.714Z,47.10
2023-01-10T06:28:10.248Z,46.60
2023-01-10T06:30:38.391Z,46.80
2023-01-10T06:33:07.964Z,45.30
2023-01-10T06:35:36.506Z,48.20
2023-01-10T06:38:04.257Z,46.70
2023-01-10T06:40:32.375Z,46.50
2023-01-10T06:43:00.223Z,47.60
2023-01-10T06:45:27.908Z,48.00
2023-01-10T06:47:55.760Z,45.60
2023-01-10T06:50:23.501Z,45.30
2023-01-10T06:53:02.633Z,46.40
2023-01-10T06:55:30.847Z,47.20
2023-01-10T06:58:03.370Z,47.40
2023-01-10T07:00:31.764Z,44.80
2023-01-10T07:03:00.812Z,42.10
2023-01-10T07:05:29.751Z,42.00
2023-01-10T07:07:58.829Z,40.60
2023-01-10T07:10:27.522Z,41.40
2023-01-10T07:12:55.973Z,42.40
2023-01-10T07:15:24.004Z,41.80
2023-01-10T07:17:51.645Z,43.30
2023-01-10T07:20:19.816Z,44.80
2023-01-10T07:22:55.894Z,44.80
2023-01-10T07:25:24.755Z,44.80
2023-01-10T07:27:55.206Z,45.30
2023-01-10T07:30:25.083Z,47.00
2023-01-10T07:32:54.848Z,45.00
2023-01-10T07:35:23.424Z,47.20
2023-01-10T07:37:51.157Z,48.50
2023-01-10T07:40:18.887Z,47.90
2023-01-10T07:42:46.566Z,46.00
2023-01-10T07:45:14.242Z,46.40
2023-01-10T07:47:41.860Z,46.20
2023-01-10T07:50:10.125Z,48.30
2023-01-10T07:52:38.436Z,47.30
2023-01-10T07:55:06.539Z,46.60
2023-01-10T07:57:34.182Z,45.50
2023-01-10T08:00:02.062Z,48.80
2023-01-10T08:02:32.906Z,50.10
2023-01-10T08:05:01.267Z,48.20
2023-01-10T08:07:29.915Z,48.30
2023-01-10T08:09:57.757Z,51.90
2023-01-10T08:12:25.504Z,51.50
2023-01-10T08:14:53.500Z,49.50
2023-01-10T08:17:21.407Z,48.00
2023-01-10T08:19:49.058Z,46.30
2023-01-10T08:22:16.776Z,46.00
2023-01-10T08:24:44.827Z,48.30
2023-01-10T08:27:12.497Z,48.20
2023-01-10T08:29:40.327Z,50.20
2023-01-10T08:32:08.606Z,49.60
2023-01-10T08:34:36.293Z,52.40
2023-01-10T08:37:04.073Z,55.90
2023-01-10T08:39:31.898Z,56.00
2023-01-10T08:41:59.559Z,54.50
2023-01-10T08:44:27.274Z,56.60
2023-01-10T08:46:54.984Z,56.00
2023-01-10T08:49:23.644Z,56.90
2023-01-10T08:51:51.270Z,57.20
2023-01-10T08:54:18.923Z,59.60
2023-01-10T08:56:46.675Z,59.20
2023-01-10T08:59:14.382Z,61.30
2023-01-10T09:01:42.167Z,60.30
2023-01-10T09:04:09.925Z,62.40
2023-01-10T09:06:37.958Z,64.10
2023-01-10T09:09:06.112Z,64.20
2023-01-10T09:11:33.739Z,64.30
2023-01-10T09:14:01.696Z,64.20
2023-01-10T09:16:29.522Z,60.90
2023-01-10T09:18:57.418Z,58.80
2023-01-10T09:21:25.109Z,59.30
2023-01-10T09:23:52.753Z,57.30
2023-01-10T09:26:20.515Z,54.50
2023-01-10T09:28:49.126Z,49.70
2023-01-10T09:31:16.876Z,46.90
2023-01-10T09:33:47.080Z,46.90
2023-01-10T09:36:15.773Z,45.90
2023-01-10T09:38:44.328Z,42.60
2023-01-10T09:41:29.649Z,42.70
2023-01-10T09:44:18.658Z,41.80
2023-01-10T09:47:22.585Z,41.50
2023-01-10T09:50:25.538Z,39.00
2023-01-10T09:53:20.704Z,36.60
2023-01-10T09:55:53.276Z,36.70
2023-01-10T09:58:24.576Z,35.10
2023-01-10T10:01:08.453Z,36.50
2023-01-10T10:04:14.126Z,36.10
2023-01-10T10:06:42.146Z,36.60
2023-01-10T10:09:13.613Z,36.70
2023-01-10T10:11:50.250Z,35.00
2023-01-10T10:14:46.037Z,38.20
2023-01-10T10:17:33.729Z,37.70
2023-01-10T10:20:22.940Z,39.20
2023-01-10T10:23:17.431Z,41.10
2023-01-10T10:25:48.185Z,42.00
2023-01-10T10:28:18.596Z,44.40
2023-01-10T10:30:57.127Z,43.80
2023-01-10T10:33:51.978Z,46.50
2023-01-10T10:36:23.964Z,43.40
2023-01-10T10:38:53.456Z,43.80
2023-01-10T10:41:41.359Z,43.20
2023-01-10T10:44:27.699Z,44.90
2023-01-10T10:46:58.215Z,42.10
2023-01-10T10:49:39.056Z,42.60
2023-01-10T10:52:26.091Z,41.50
2023-01-10T10:54:54.106Z,41.10
2023-01-10T10:57:24.978Z,40.40
2023-01-10T10:59:53.028Z,42.20
2023-01-10T11:02:31.971Z,41.20
2023-01-10T11:05:03.821Z,41.10
2023-01-10T11:07:36.244Z,41.40
2023-01-10T11:10:34.861Z,41.40
2023-01-10T11:13:06.216Z,39.60
2023-01-10T11:15:36.821Z,41.40
2023-01-10T11:18:07.073Z,41.60
2023-01-10T11:20:35.094Z,43.90
2023-01-10T11:23:03.477Z,42.40
2023-01-10T11:25:31.528Z,42.40
2023-01-10T11:28:01.268Z,42.00
2023-01-10T11:30:31.499Z,41.60
2023-01-10T11:33:06.162Z,42.90
2023-01-10T11:35:37.093Z,42.90
2023-01-10T11:38:29.154Z,43.90
2023-01-10T11:41:01.402Z,45.40
2023-01-10T11:43:38.362Z,49.20
2023-01-10T11:46:06.825Z,47.80
2023-01-10T11:49:04.223Z,49.90
2023-01-10T11:51:38.638Z,50.40
2023-01-10T11:54:18.009Z,50.50
2023-01-10T11:56:55.623Z,50.60
2023-01-10T11:59:23.789Z,52.10
2023-01-10T12:01:58.413Z,52.50
2023-01-10T12:04:28.420Z,53.50
2023-01-10T12:07:00.483Z,57.20
2023-01-10T12:10:02.271Z,57.00
2023-01-10T12:12:33.524Z,57.20
2023-01-10T12:15:24.998Z,57.50
2023-01-10T12:17:55.264Z,57.50
2023-01-10T12:20:23.970Z,58.40
2023-01-10T12:22:58.317Z,57.30
2023-01-10T12:25:38.118Z,58.40
2023-01-10T12:28:18.837Z,58.50
2023-01-10T12:30:50.706Z,57.50
2023-01-10T12:33:22.475Z,56.40
2023-01-10T12:36:02.175Z,59.30
2023-01-10T12:38:57.968Z,53.90
2023-01-10T12:41:55.088Z,55.30
2023-01-10T12:44:33.026Z,54.50
2023-01-10T12:47:19.736Z,56.40
2023-01-10T12:50:10.376Z,55.90
2023-01-10T12:53:01.186Z,59.00
2023-01-10T12:55:42.819Z,59.20
2023-01-10T12:58:22.020Z,59.50
2023-01-10T13:00:55.437Z,100.60
2023-01-10T13:03:29.119Z,108.80
2023-01-10T13:05:58.263Z,117.80
2023-01-10T13:08:29.423Z,62.40
2023-01-10T13:10:58.628Z,160.50
2023-01-10T13:13:32.418Z,240.20
2023-01-10T13:16:11.361Z,293.00
2023-01-10T13:19:21.307Z,196.80
2023-01-10T13:21:49.059Z,91.70
2023-01-10T13:24:26.390Z,154.00
2023-01-10T13:27:01.883Z,76.40
2023-01-10T13:29:32.104Z,58.60
2023-01-10T13:32:01.781Z,55.90
2023-01-10T13:34:34.582Z,55.30
2023-01-10T13:37:12.176Z,55.50
2023-01-10T13:39:41.467Z,57.20
2023-01-10T13:42:27.663Z,55.30
2023-01-10T13:45:01.811Z,58.00
2023-01-10T13:47:38.929Z,60.00
2023-01-10T13:50:25.492Z,68.10
2023-01-10T13:52:54.120Z,67.00
2023-01-10T13:55:26.188Z,69.10
2023-01-10T13:57:56.857Z,62.90
2023-01-10T14:00:46.129Z,62.20
2023-01-10T14:03:45.115Z,65.70
2023-01-10T14:06:14.464Z,64.80
2023-01-10T14:08:49.683Z,63.30
2023-01-10T14:11:17.401Z,63.10
2023-01-10T14:13:53.023Z,66.10
2023-01-10T14:16:48.320Z,65.00
2023-01-10T14:19:26.033Z,57.10
2023-01-10T14:21:55.629Z,57.30
2023-01-10T14:24:27.441Z,55.40
2023-01-10T14:26:58.471Z,53.70
2023-01-10T14:29:31.517Z,52.40
2023-01-10T14:32:00.489Z,54.00
2023-01-10T14:34:36.782Z,56.60
2023-01-10T14:37:10.928Z,58.50
2023-01-10T14:39:40.598Z,55.90
2023-01-10T14:42:13.809Z,56.50
2023-01-10T14:44:51.269Z,55.40
2023-01-10T14:47:28.433Z,54.60
2023-01-10T14:50:01.492Z,48.70
2023-01-10T14:52:30.271Z,49.70
2023-01-10T14:54:57.960Z,52.60
2023-01-10T14:57:25.611Z,48.00
2023-01-10T15:00:21.648Z,83.50
2023-01-10T15:02:49.762Z,152.10
2023-01-10T15:05:21.976Z,112.30
2023-01-10T15:07:49.787Z,144.60
2023-01-10T15:10:26.797Z,68.80
2023-01-10T15:12:57.588Z,61.50
2023-01-10T15:15:33.669Z,72.80
2023-01-10T15:18:06.944Z,185.40
2023-01-10T15:20:34.648Z,121.50
2023-01-10T15:23:02.279Z,102.10
2023-01-10T15:25:33.199Z,85.20
2023-01-10T15:28:02.818Z,106.20
2023-01-10T15:30:35.570Z,113.80
2023-01-10T15:33:05.974Z,132.80
2023-01-10T15:35:37.417Z,127.00
2023-01-10T15:38:08.541Z,170.00
2023-01-10T15:40:38.121Z,122.00
2023-01-10T15:43:17.940Z,97.10
2023-01-10T15:45:46.660Z,106.50
2023-01-10T15:48:56.005Z,114.80
2023-01-10T15:51:48.421Z,76.80
2023-01-10T15:54:18.992Z,91.30
2023-01-10T15:56:49.295Z,69.50
2023-01-10T15:59:40.626Z,66.20
2023-01-10T16:02:11.525Z,67.40
2023-01-10T16:04:40.078Z,66.80
2023-01-10T16:07:32.062Z,69.90
2023-01-10T16:10:06.892Z,62.80
2023-01-10T16:12:58.549Z,61.50
2023-01-10T16:15:31.333Z,61.10
2023-01-10T16:17:59.027Z,58.30
2023-01-10T16:20:30.286Z,62.20
2023-01-10T16:22:58.549Z,58.60
2023-01-10T16:25:39.027Z,54.90
2023-01-10T16:28:06.893Z,56.00
2023-01-10T16:30:35.133Z,56.00
2023-01-10T16:33:10.824Z,54.20
2023-01-10T16:35:39.381Z,51.20
2023-01-10T16:38:08.226Z,53.80
2023-01-10T16:40:40.785Z,58.30
2023-01-10T16:43:17.948Z,63.80
2023-01-10T16:45:50.268Z,65.80
2023-01-10T16:48:19.349Z,61.10
2023-01-10T16:50:48.235Z,73.70
2023-01-10T16:53:17.807Z,71.70
2023-01-10T16:55:46.477Z,50.20
2023-01-10T16:58:15.795Z,53.80
2023-01-10T17:00:47.021Z,56.00
2023-01-10T17:03:17.569Z,71.40
2023-01-10T17:05:45.440Z,65.70
2023-01-10T17:08:21.572Z,52.70
2023-01-10T17:10:56.156Z,66.60
2023-01-10T17:13:27.251Z,68.80
2023-01-10T17:15:55.212Z,69.00
2023-01-10T17:18:24.988Z,63.40
2023-01-10T17:20:52.616Z,55.50
2023-01-10T17:23:20.319Z,48.40
2023-01-10T17:25:49.799Z,44.90
2023-01-10T17:28:19.415Z,47.70
2023-01-10T17:30:47.121Z,48.80
2023-01-10T17:33:14.784Z,49.10
2023-01-10T17:35:43.276Z,53.30
2023-01-10T17:38:13.342Z,48.90
2023-01-10T17:40:42.042Z,49.50
2023-01-10T17:43:13.625Z,49.00
2023-01-10T17:45:43.120Z,49.80
2023-01-10T17:48:16.289Z,50.90
2023-01-10T17:50:45.265Z,47.20
2023-01-10T17:53:13.213Z,47.60
2023-01-10T17:55:45.492Z,48.60
2023-01-10T17:58:14.060Z,48.80
2023-01-10T18:00:41.736Z,49.10
2023-01-10T18:03:10.111Z,48.50
2023-01-10T18:05:39.928Z,49.30
2023-01-10T18:08:08.085Z,52.70
2023-01-10T18:10:35.843Z,54.90
2023-01-10T18:13:03.774Z,54.60
2023-01-10T18:15:31.503Z,58.60
2023-01-10T18:17:59.219Z,58.00
2023-01-10T18:20:27.719Z,54.50
2023-01-10T18:23:14.230Z,56.10
2023-01-10T18:25:42.221Z,52.30
2023-01-10T18:28:09.862Z,54.00
2023-01-10T18:30:37.869Z,51.70
2023-01-10T18:33:06.126Z,51.40
2023-01-10T18:35:33.853Z,50.10
2023-01-10T18:38:01.503Z,47.30
2023-01-10T18:40:29.231Z,49.50
2023-01-10T18:42:58.410Z,51.50
2023-01-10T18:45:27.526Z,51.00
2023-01-10T18:47:57.542Z,54.70
2023-01-10T18:50:26.279Z,58.20
2023-01-10T18:52:53.924Z,52.10
2023-01-10T18:55:21.544Z,51.50
2023-01-10T18:57:49.276Z,53.80
2023-01-10T19:00:17.253Z,55.40
2023-01-10T19:02:46.076Z,61.40
2023-01-10T19:05:15.176Z,53.80
2023-01-10T19:07:42.893Z,56.70
2023-01-10T19:10:10.792Z,60.00
2023-01-10T19:12:41.450Z,61.30
2023-01-10T19:15:09.742Z,55.90
2023-01-10T19:17:37.462Z,53.40
2023-01-10T19:20:05.892Z,55.80
2023-01-10T19:22:33.725Z,55.50
2023-01-10T19:25:01.399Z,58.80
2023-01-10T19:27:29.101Z,57.10
2023-01-10T19:29:56.844Z,61.50
2023-01-10T19:32:25.440Z,60.70
2023-01-10T19:34:53.161Z,62.70
2023-01-10T19:37:20.874Z,70.70
2023-01-10T19:39:48.544Z,57.00
2023-01-10T19:42:16.277Z,54.30
2023-01-10T19:44:44.017Z,50.70
2023-01-10T19:47:11.759Z,54.30
2023-01-10T19:49:39.466Z,54.90
2023-01-10T19:52:07.252Z,58.60
2023-01-10T19:54:36.588Z,53.90
2023-01-10T19:57:04.356Z,51.40
2023-01-10T19:59:33.173Z,56.40
2023-01-10T20:02:01.702Z,50.80
2023-01-10T20:04:29.469Z,49.00
2023-01-10T20:06:57.286Z,48.00
2023-01-10T20:09:25.270Z,46.90
2023-01-10T20:11:53.220Z,44.00
2023-01-10T20:14:21.847Z,43.00
2023-01-10T20:16:49.716Z,42.10
2023-01-10T20:19:18.192Z,47.40
2023-01-10T20:21:46.001Z,44.80
2023-01-10T20:24:17.177Z,43.90
2023-01-10T20:26:46.981Z,50.90
2023-01-10T20:29:15.693Z,61.80
2023-01-10T20:31:46.491Z,62.60
2023-01-10T20:34:14.151Z,62.80
2023-01-10T20:36:41.884Z,46.10
2023-01-10T20:39:09.623Z,45.00
2023-01-10T20:41:39.870Z,43.90
2023-01-10T20:44:07.559Z,43.10
2023-01-10T20:46:36.874Z,45.10
2023-01-10T20:49:04.880Z,43.10
2023-01-10T20:51:35.317Z,45.70
2023-01-10T20:54:05.802Z,45.50
2023-01-10T20:56:35.224Z,47.40
2023-01-10T20:59:03.298Z,48.70
2023-01-10T21:01:35.111Z,51.50
2023-01-10T21:04:05.801Z,52.70
2023-01-10T21:06:34.799Z,51.80
2023-01-10T21:09:02.904Z,54.60
2023-01-10T21:11:30.639Z,56.00
2023-01-10T21:13:58.354Z,58.70
2023-01-10T21:16:26.472Z,52.90
2023-01-10T21:18:54.823Z,56.80
2023-01-10T21:21:22.717Z,53.70
2023-01-10T21:23:53.716Z,56.80
2023-01-10T21:26:22.090Z,61.20
2023-01-10T21:28:49.780Z,58.40
2023-01-10T21:31:20.018Z,56.30
2023-01-10T21:33:49.216Z,54.50
2023-01-10T21:36:17.526Z,55.90
2023-01-10T21:38:45.352Z,53.40
2023-01-10T21:41:35.768Z,51.50
2023-01-10T21:44:04.760Z,52.00
2023-01-10T21:46:32.857Z,50.90
2023-01-10T21:49:01.991Z,54.20
2023-01-10T21:51:29.720Z,51.20
2023-01-10T21:53:57.842Z,52.10
2023-01-10T21:56:25.536Z,50.80
2023-01-10T21:58:53.243Z,52.50
2023-01-10T22:01:20.991Z,49.70
2023-01-10T22:03:49.571Z,50.30
2023-01-10T22:06:17.378Z,49.20
2023-01-10T22:08:45.109Z,51.50
2023-01-10T22:11:12.792Z,51.30
2023-01-10T22:13:40.894Z,49.90
2023-01-10T22:16:08.611Z,49.40
2023-01-10T22:18:36.487Z,49.40
2023-01-10T22:21:04.166Z,49.60
2023-01-10T22:23:32.017Z,47.40
2023-01-10T22:26:02.306Z,48.60
2023-01-10T22:28:30.496Z,46.30
2023-01-10T22:30:58.306Z,45.60
2023-01-10T22:33:30.477Z,46.30
2023-01-10T22:36:05.602Z,47.00
2023-01-10T22:38:34.111Z,46.10
2023-01-10T22:41:09.500Z,45.20
2023-01-10T22:43:37.421Z,43.10
2023-01-10T22:46:05.986Z,42.80
2023-01-10T22:48:39.796Z,44.10
2023-01-10T22:51:07.884Z,43.90
2023-01-10T22:53:35.588Z,44.30
2023-01-10T22:56:05.593Z,43.80
2023-01-10T22:58:33.442Z,42.50
2023-01-10T23:01:04.032Z,42.70
2023-01-10T23:03:31.756Z,43.80
2023-01-10T23:05:59.968Z,44.20
2023-01-10T23:08:27.767Z,44.50
2023-01-10T23:10:55.627Z,43.90
2023-01-10T23:13:24.156Z,44.10
2023-01-10T23:16:00.406Z,45.20
2023-01-10T23:18:28.797Z,47.00
2023-01-10T23:20:56.727Z,48.80
2023-01-10T23:23:24.926Z,47.50
2023-01-10T23:26:02.552Z,51.20
2023-01-10T23:28:44.562Z,49.40
2023-01-10T23:31:14.748Z,46.60
2023-01-10T23:33:42.482Z,44.00
2023-01-10T23:36:10.790Z,45.90
2023-01-10T23:38:38.655Z,44.30
2023-01-10T23:41:06.894Z,45.60
2023-01-10T23:43:34.716Z,46.70
2023-01-10T23:46:02.561Z,45.80
2023-01-10T23:48:30.309Z,46.80
2023-01-10T23:50:58.689Z,45.90
2023-01-10T23:53:26.816Z,45.60
2023-01-10T23:55:54.540Z,47.10
2023-01-10T23:58:22.340Z,47.70
